sensor_id;sensor_type;location;lat;lon;timestamp;temperature;humidity
12421;DHT22;6275;43.688;1.408;2023-02-12T10:32:24;0.50;99.90
12421;DHT22;6275;43.688;1.408;2023-02-12T10:34:55;0.50;99.90
12421;DHT22;6275;43.688;1.408;2023-02-12T10:37:36;0.60;99.90
12421;DHT22;6275;43.688;1.408;2023-02-12T10:40:22;0.60;99.90
12421;DHT22;6275;43.688;1.408;2023-02-12T10:42:52;0.40;99.90
12421;DHT22;6275;43.688;1.408;2023-02-12T10:45:33;0.60;99.90
12421;DHT22;6275;43.688;1.408;2023-02-12T10:48:17;0.60;99.90
12421;DHT22;6275;43.688;1.408;2023-02-12T10:53:26;0.80;99.90
12421;DHT22;6275;43.688;1.408;2023-02-12T11:03:48;1.00;99.90
12421;DHT22;6275;43.688;1.408;2023-02-12T11:06:21;0.90;99.90
12421;DHT22;6275;43.688;1.408;2023-02-12T11:08:49;0.90;99.90
12421;DHT22;6275;43.688;1.408;2023-02-12T11:11:23;1.00;99.90
12421;DHT22;6275;43.688;1.408;2023-02-12T11:16:36;1.00;99.90
12421;DHT22;6275;43.688;1.408;2023-02-12T11:19:06;1.20;99.90
12421;DHT22;6275;43.688;1.408;2023-02-12T11:21:34;1.30;99.90
12421;DHT22;6275;43.688;1.408;2023-02-12T11:26:51;1.30;99.90
12421;DHT22;6275;43.688;1.408;2023-02-12T11:29:22;1.40;99.90
12421;DHT22;6275;43.688;1.408;2023-02-12T11:32:01;1.40;99.90
12421;DHT22;6275;43.688;1.408;2023-02-12T11:34:28;1.40;99.90
12421;DHT22;6275;43.688;1.408;2023-02-12T11:36:56;1.50;99.90
12421;DHT22;6275;43.688;1.408;2023-02-12T11:42:05;1.60;99.90
12421;DHT22;6275;43.688;1.408;2023-02-12T11:44:52;1.70;99.90
12421;DHT22;6275;43.688;1.408;2023-02-12T11:47:26;1.90;99.90
12421;DHT22;6275;43.688;1.408;2023-02-12T11:49:58;1.90;99.90
12421;DHT22;6275;43.688;1.408;2023-02-12T11:52:33;1.90;99.90
12421;DHT22;6275;43.688;1.408;2023-02-12T11:55:04;1.90;99.90
12421;DHT22;6275;43.688;1.408;2023-02-12T11:57:45;1.80;99.90
12421;DHT22;6275;43.688;1.408;2023-02-12T12:00:27;2.00;99.90
12421;DHT22;6275;43.688;1.408;2023-02-12T12:03:14;2.10;99.90
12421;DHT22;6275;43.688;1.408;2023-02-12T12:05:52;2.20;99.90
12421;DHT22;6275;43.688;1.408;2023-02-12T12:08:27;2.30;99.90
12421;DHT22;6275;43.688;1.408;2023-02-12T12:10:58;2.40;99.90
12421;DHT22;6275;43.688;1.408;2023-02-12T12:13:32;2.40;99.90
12421;DHT22;6275;43.688;1.408;2023-02-12T12:16:12;2.50;99.90
12421;DHT22;6275;43.688;1.408;2023-02-12T12:19:20;2.50;99.90
12421;DHT22;6275;43.688;1.408;2023-02-12T12:22:12;2.60;99.90
12421;DHT22;6275;43.688;1.408;2023-02-12T12:26:06;2.50;99.90
12421;DHT22;6275;43.688;1.408;2023-02-12T12:31:37;2.50;99.90
12421;DHT22;6275;43.688;1.408;2023-02-12T12:42:19;2.70;99.90
12421;DHT22;6275;43.688;1.408;2023-02-12T12:52:56;2.80;99.90
12421;DHT22;6275;43.688;1.408;2023-02-12T13:10:16;3.10;99.90
12421;DHT22;6275;43.688;1.408;2023-02-12T13:13:08;3.20;99.90
12421;DHT22;6275;43.688;1.408;2023-02-12T13:15:50;3.00;99.90
12421;DHT22;6275;43.688;1.408;2023-02-12T13:21:38;3.10;99.90
12421;DHT22;6275;43.688;1.408;2023-02-12T13:27:06;3.30;99.90
12421;DHT22;6275;43.688;1.408;2023-02-12T13:29:44;3.60;99.90
12421;DHT22;6275;43.688;1.408;2023-02-12T13:35:01;4.00;99.90
12421;DHT22;6275;43.688;1.408;2023-02-12T13:37:42;4.00;99.90
12421;DHT22;6275;43.688;1.408;2023-02-12T13:40:21;4.30;99.90
12421;DHT22;6275;43.688;1.408;2023-02-12T13:43:24;4.40;99.90
12421;DHT22;6275;43.688;1.408;2023-02-12T13:51:40;6.00;99.90
12421;DHT22;6275;43.688;1.408;2023-02-12T13:57:16;5.20;99.90
12421;DHT22;6275;43.688;1.408;2023-02-12T13:59:50;5.80;99.90
12421;DHT22;6275;43.688;1.408;2023-02-12T15:23:01;6.70;99.90
12421;DHT22;6275;43.688;1.408;2023-02-12T15:25:32;6.60;99.90
12421;DHT22;6275;43.688;1.408;2023-02-12T15:28:24;6.30;99.90
12421;DHT22;6275;43.688;1.408;2023-02-12T15:30:55;6.40;99.90
12421;DHT22;6275;43.688;1.408;2023-02-12T15:33:31;6.60;99.90
12421;DHT22;6275;43.688;1.408;2023-02-12T15:36:00;6.70;99.90
12421;DHT22;6275;43.688;1.408;2023-02-12T15:38:39;6.50;99.90
12421;DHT22;6275;43.688;1.408;2023-02-12T15:41:33;6.40;99.90
12421;DHT22;6275;43.688;1.408;2023-02-12T15:44:04;6.10;99.90
12421;DHT22;6275;43.688;1.408;2023-02-12T15:46:53;6.00;99.90
12421;DHT22;6275;43.688;1.408;2023-02-12T15:49:20;5.80;99.90
12421;DHT22;6275;43.688;1.408;2023-02-12T15:51:50;5.60;99.90
12421;DHT22;6275;43.688;1.408;2023-02-12T15:54:19;5.50;99.90
12421;DHT22;6275;43.688;1.408;2023-02-12T15:56:46;5.50;99.90
12421;DHT22;6275;43.688;1.408;2023-02-12T15:59:22;5.50;99.90
12421;DHT22;6275;43.688;1.408;2023-02-12T16:01:57;5.50;99.90
12421;DHT22;6275;43.688;1.408;2023-02-12T16:04:27;5.40;99.90
12421;DHT22;6275;43.688;1.408;2023-02-12T16:06:55;5.40;99.90
12421;DHT22;6275;43.688;1.408;2023-02-12T16:09:32;5.30;99.90
12421;DHT22;6275;43.688;1.408;2023-02-12T16:12:02;5.30;99.90
12421;DHT22;6275;43.688;1.408;2023-02-12T16:14:59;5.20;99.90
12421;DHT22;6275;43.688;1.408;2023-02-12T16:17:32;5.20;99.90
12421;DHT22;6275;43.688;1.408;2023-02-12T16:20:05;5.20;99.90
12421;DHT22;6275;43.688;1.408;2023-02-12T16:22:39;5.20;99.90
12421;DHT22;6275;43.688;1.408;2023-02-12T16:30:31;4.90;99.90
12421;DHT22;6275;43.688;1.408;2023-02-12T16:32:59;4.90;99.90
12421;DHT22;6275;43.688;1.408;2023-02-12T16:35:31;4.80;99.90
12421;DHT22;6275;43.688;1.408;2023-02-12T16:38:48;4.70;99.90
12421;DHT22;6275;43.688;1.408;2023-02-12T16:43:45;4.30;99.90
12421;DHT22;6275;43.688;1.408;2023-02-12T16:46:13;4.10;99.90
12421;DHT22;6275;43.688;1.408;2023-02-12T16:48:45;3.90;99.90
12421;DHT22;6275;43.688;1.408;2023-02-12T16:51:29;3.80;99.90
12421;DHT22;6275;43.688;1.408;2023-02-12T16:54:04;3.70;99.90
12421;DHT22;6275;43.688;1.408;2023-02-12T16:56:49;3.60;99.90
12421;DHT22;6275;43.688;1.408;2023-02-12T16:59:17;3.50;99.90
12421;DHT22;6275;43.688;1.408;2023-02-12T17:02:03;3.40;99.90
12421;DHT22;6275;43.688;1.408;2023-02-12T17:04:30;3.30;99.90
12421;DHT22;6275;43.688;1.408;2023-02-12T17:06:57;3.30;99.90
12421;DHT22;6275;43.688;1.408;2023-02-12T17:09:24;3.20;99.90
12421;DHT22;6275;43.688;1.408;2023-02-12T17:11:52;3.10;99.90
12421;DHT22;6275;43.688;1.408;2023-02-12T17:14:19;3.10;99.90
12421;DHT22;6275;43.688;1.408;2023-02-12T17:16:46;3.00;99.90
12421;DHT22;6275;43.688;1.408;2023-02-12T17:19:14;3.00;99.90
12421;DHT22;6275;43.688;1.408;2023-02-12T17:21:43;2.90;99.90
12421;DHT22;6275;43.688;1.408;2023-02-12T17:24:20;2.90;99.90
12421;DHT22;6275;43.688;1.408;2023-02-12T17:26:49;2.80;99.90
12421;DHT22;6275;43.688;1.408;2023-02-12T17:29:17;2.80;99.90
12421;DHT22;6275;43.688;1.408;2023-02-12T17:31:45;2.80;99.90
12421;DHT22;6275;43.688;1.408;2023-02-12T17:34:14;2.70;99.90
12421;DHT22;6275;43.688;1.408;2023-02-12T17:36:42;2.60;99.90
12421;DHT22;6275;43.688;1.408;2023-02-12T17:39:11;2.40;99.90
12421;DHT22;6275;43.688;1.408;2023-02-12T17:41:39;2.30;99.90
12421;DHT22;6275;43.688;1.408;2023-02-12T17:44:06;2.10;99.90
12421;DHT22;6275;43.688;1.408;2023-02-12T17:46:34;1.80;99.90
12421;DHT22;6275;43.688;1.408;2023-02-12T17:49:02;1.70;99.90
12421;DHT22;6275;43.688;1.408;2023-02-12T17:51:29;1.70;99.90
12421;DHT22;6275;43.688;1.408;2023-02-12T17:53:57;1.60;99.90
12421;DHT22;6275;43.688;1.408;2023-02-12T17:56:24;1.60;99.90
12421;DHT22;6275;43.688;1.408;2023-02-12T17:58:51;1.50;99.90
12421;DHT22;6275;43.688;1.408;2023-02-12T18:01:20;1.50;99.90
12421;DHT22;6275;43.688;1.408;2023-02-12T18:03:48;1.50;99.90
12421;DHT22;6275;43.688;1.408;2023-02-12T18:06:29;1.30;99.90
12421;DHT22;6275;43.688;1.408;2023-02-12T18:08:58;1.10;99.90
12421;DHT22;6275;43.688;1.408;2023-02-12T18:11:27;1.20;99.90
12421;DHT22;6275;43.688;1.408;2023-02-12T18:13:56;1.30;99.90
12421;DHT22;6275;43.688;1.408;2023-02-12T18:16:26;1.30;99.90
12421;DHT22;6275;43.688;1.408;2023-02-12T18:18:53;1.20;99.90
12421;DHT22;6275;43.688;1.408;2023-02-12T18:21:21;1.00;99.90
12421;DHT22;6275;43.688;1.408;2023-02-12T18:23:48;0.80;99.90
12421;DHT22;6275;43.688;1.408;2023-02-12T18:26:17;0.70;99.90
12421;DHT22;6275;43.688;1.408;2023-02-12T18:28:45;0.80;99.90
12421;DHT22;6275;43.688;1.408;2023-02-12T18:31:13;0.70;99.90
12421;DHT22;6275;43.688;1.408;2023-02-12T18:33:40;0.60;99.90
12421;DHT22;6275;43.688;1.408;2023-02-12T18:36:11;0.40;99.90
12421;DHT22;6275;43.688;1.408;2023-02-12T18:38:40;0.40;99.90
12421;DHT22;6275;43.688;1.408;2023-02-12T18:41:11;0.40;99.90
12421;DHT22;6275;43.688;1.408;2023-02-12T18:43:39;0.50;99.90
12421;DHT22;6275;43.688;1.408;2023-02-12T18:46:11;0.30;99.90
12421;DHT22;6275;43.688;1.408;2023-02-12T18:48:38;0.30;99.90
12421;DHT22;6275;43.688;1.408;2023-02-12T18:51:07;0.10;99.90
12421;DHT22;6275;43.688;1.408;2023-02-12T18:53:35;0.00;99.90
12421;DHT22;6275;43.688;1.408;2023-02-12T18:56:06;-0.20;99.90
12421;DHT22;6275;43.688;1.408;2023-02-12T18:58:34;-0.10;99.90
12421;DHT22;6275;43.688;1.408;2023-02-12T19:01:15;-0.30;99.90
12421;DHT22;6275;43.688;1.408;2023-02-12T19:03:43;-0.40;99.90
12421;DHT22;6275;43.688;1.408;2023-02-12T19:06:10;-0.50;99.90
12421;DHT22;6275;43.688;1.408;2023-02-12T19:08:37;-0.60;99.90
12421;DHT22;6275;43.688;1.408;2023-02-12T19:11:06;-0.70;99.90
12421;DHT22;6275;43.688;1.408;2023-02-12T19:13:34;-0.60;99.90
12421;DHT22;6275;43.688;1.408;2023-02-12T19:16:06;-0.60;99.90
12421;DHT22;6275;43.688;1.408;2023-02-12T19:18:33;-0.50;99.90
12421;DHT22;6275;43.688;1.408;2023-02-12T19:21:04;-0.50;99.90
12421;DHT22;6275;43.688;1.408;2023-02-12T19:23:32;-0.60;99.90
12421;DHT22;6275;43.688;1.408;2023-02-12T19:26:05;-0.70;99.90
12421;DHT22;6275;43.688;1.408;2023-02-12T19:28:33;-0.80;99.90
12421;DHT22;6275;43.688;1.408;2023-02-12T19:31:23;-0.80;99.90
12421;DHT22;6275;43.688;1.408;2023-02-12T19:33:56;-0.90;99.90
12421;DHT22;6275;43.688;1.408;2023-02-12T19:36:24;-1.00;99.90
12421;DHT22;6275;43.688;1.408;2023-02-12T19:38:53;-1.00;99.90
12421;DHT22;6275;43.688;1.408;2023-02-12T19:41:22;-1.10;99.90
12421;DHT22;6275;43.688;1.408;2023-02-12T19:43:54;-1.20;99.90
12421;DHT22;6275;43.688;1.408;2023-02-12T19:46:26;-1.20;99.90
12421;DHT22;6275;43.688;1.408;2023-02-12T19:48:57;-1.10;99.90
12421;DHT22;6275;43.688;1.408;2023-02-12T19:51:25;-1.10;99.90
12421;DHT22;6275;43.688;1.408;2023-02-12T19:53:52;-1.10;99.90
12421;DHT22;6275;43.688;1.408;2023-02-12T19:56:21;-1.00;99.90
12421;DHT22;6275;43.688;1.408;2023-02-12T19:58:48;-1.00;99.90
12421;DHT22;6275;43.688;1.408;2023-02-12T20:01:18;-1.10;99.90
12421;DHT22;6275;43.688;1.408;2023-02-12T20:03:47;-1.00;99.90
12421;DHT22;6275;43.688;1.408;2023-02-12T20:06:26;-1.10;99.90
12421;DHT22;6275;43.688;1.408;2023-02-12T20:08:55;-1.20;99.90
12421;DHT22;6275;43.688;1.408;2023-02-12T20:11:24;-1.20;99.90
12421;DHT22;6275;43.688;1.408;2023-02-12T20:13:52;-1.20;99.90
12421;DHT22;6275;43.688;1.408;2023-02-12T20:16:24;-1.20;99.90
12421;DHT22;6275;43.688;1.408;2023-02-12T20:18:53;-1.20;99.90
12421;DHT22;6275;43.688;1.408;2023-02-12T20:21:23;-1.20;99.90
12421;DHT22;6275;43.688;1.408;2023-02-12T20:23:51;-1.20;99.90
12421;DHT22;6275;43.688;1.408;2023-02-12T20:26:19;-1.30;99.90
12421;DHT22;6275;43.688;1.408;2023-02-12T20:28:47;-1.30;99.90
12421;DHT22;6275;43.688;1.408;2023-02-12T20:31:18;-1.30;99.90
12421;DHT22;6275;43.688;1.408;2023-02-12T20:33:46;-1.30;99.90
12421;DHT22;6275;43.688;1.408;2023-02-12T20:36:14;-1.40;99.90
12421;DHT22;6275;43.688;1.408;2023-02-12T20:38:42;-1.40;99.90
12421;DHT22;6275;43.688;1.408;2023-02-12T20:41:10;-1.30;99.90
12421;DHT22;6275;43.688;1.408;2023-02-12T20:43:37;-1.40;99.90
12421;DHT22;6275;43.688;1.408;2023-02-12T20:46:07;-1.40;99.90
12421;DHT22;6275;43.688;1.408;2023-02-12T20:48:35;-1.40;99.90
12421;DHT22;6275;43.688;1.408;2023-02-12T20:51:05;-1.40;99.90
12421;DHT22;6275;43.688;1.408;2023-02-12T20:53:33;-1.50;99.90
12421;DHT22;6275;43.688;1.408;2023-02-12T20:56:02;-1.40;99.90
12421;DHT22;6275;43.688;1.408;2023-02-12T20:58:30;-1.40;99.90
12421;DHT22;6275;43.688;1.408;2023-02-12T21:01:10;-1.40;99.90
12421;DHT22;6275;43.688;1.408;2023-02-12T21:03:38;-1.40;99.90
12421;DHT22;6275;43.688;1.408;2023-02-12T21:06:06;-1.40;99.90
12421;DHT22;6275;43.688;1.408;2023-02-12T21:08:35;-1.40;99.90
12421;DHT22;6275;43.688;1.408;2023-02-12T21:11:14;-1.40;99.90
12421;DHT22;6275;43.688;1.408;2023-02-12T21:13:44;-1.40;99.90
12421;DHT22;6275;43.688;1.408;2023-02-12T21:16:32;-1.50;99.90
12421;DHT22;6275;43.688;1.408;2023-02-12T21:19:02;-1.50;99.90
12421;DHT22;6275;43.688;1.408;2023-02-12T21:21:34;-1.50;99.90
12421;DHT22;6275;43.688;1.408;2023-02-12T21:24:03;-1.50;99.90
12421;DHT22;6275;43.688;1.408;2023-02-12T21:26:32;-1.50;99.90
12421;DHT22;6275;43.688;1.408;2023-02-12T21:29:01;-1.50;99.90
12421;DHT22;6275;43.688;1.408;2023-02-12T21:31:34;-1.50;99.90
12421;DHT22;6275;43.688;1.408;2023-02-12T21:34:03;-1.50;99.90
12421;DHT22;6275;43.688;1.408;2023-02-12T21:36:35;-1.50;99.90
12421;DHT22;6275;43.688;1.408;2023-02-12T21:39:05;-1.50;99.90
12421;DHT22;6275;43.688;1.408;2023-02-12T21:41:38;-1.50;99.90
12421;DHT22;6275;43.688;1.408;2023-02-12T21:44:09;-1.50;99.90
12421;DHT22;6275;43.688;1.408;2023-02-12T21:46:36;-1.60;99.90
12421;DHT22;6275;43.688;1.408;2023-02-12T21:49:04;-1.60;99.90
12421;DHT22;6275;43.688;1.408;2023-02-12T21:51:33;-1.60;99.90
12421;DHT22;6275;43.688;1.408;2023-02-12T21:54:03;-1.50;99.90
12421;DHT22;6275;43.688;1.408;2023-02-12T21:56:31;-1.50;99.90
12421;DHT22;6275;43.688;1.408;2023-02-12T21:58:58;-1.60;99.90
12421;DHT22;6275;43.688;1.408;2023-02-12T22:01:27;-1.60;99.90
12421;DHT22;6275;43.688;1.408;2023-02-12T22:03:56;-1.60;99.90
12421;DHT22;6275;43.688;1.408;2023-02-12T22:06:24;-1.60;99.90
12421;DHT22;6275;43.688;1.408;2023-02-12T22:08:52;-1.70;99.90
12421;DHT22;6275;43.688;1.408;2023-02-12T22:11:20;-1.60;99.90
12421;DHT22;6275;43.688;1.408;2023-02-12T22:13:48;-1.60;99.90
12421;DHT22;6275;43.688;1.408;2023-02-12T22:16:21;-1.70;99.90
12421;DHT22;6275;43.688;1.408;2023-02-12T22:18:51;-1.70;99.90
12421;DHT22;6275;43.688;1.408;2023-02-12T22:21:18;-1.70;99.90
12421;DHT22;6275;43.688;1.408;2023-02-12T22:23:45;-1.60;99.90
12421;DHT22;6275;43.688;1.408;2023-02-12T22:26:18;-1.60;99.90
12421;DHT22;6275;43.688;1.408;2023-02-12T22:28:47;-1.60;99.90
12421;DHT22;6275;43.688;1.408;2023-02-12T22:31:17;-1.70;99.90
12421;DHT22;6275;43.688;1.408;2023-02-12T22:33:50;-1.70;99.90
12421;DHT22;6275;43.688;1.408;2023-02-12T22:36:18;-1.70;99.90
12421;DHT22;6275;43.688;1.408;2023-02-12T22:38:48;-1.70;99.90
12421;DHT22;6275;43.688;1.408;2023-02-12T22:41:15;-1.70;99.90
12421;DHT22;6275;43.688;1.408;2023-02-12T22:43:42;-1.70;99.90
12421;DHT22;6275;43.688;1.408;2023-02-12T22:46:10;-1.80;99.90
12421;DHT22;6275;43.688;1.408;2023-02-12T22:48:38;-1.90;99.90
12421;DHT22;6275;43.688;1.408;2023-02-12T22:51:20;-1.90;99.90
12421;DHT22;6275;43.688;1.408;2023-02-12T22:53:47;-2.00;99.90
12421;DHT22;6275;43.688;1.408;2023-02-12T22:56:15;-2.00;99.90
12421;DHT22;6275;43.688;1.408;2023-02-12T22:58:42;-2.00;99.90
12421;DHT22;6275;43.688;1.408;2023-02-12T23:01:13;-2.00;99.90
12421;DHT22;6275;43.688;1.408;2023-02-12T23:03:41;-2.00;99.90
12421;DHT22;6275;43.688;1.408;2023-02-12T23:06:14;-2.00;99.90
12421;DHT22;6275;43.688;1.408;2023-02-12T23:08:41;-2.00;99.90
12421;DHT22;6275;43.688;1.408;2023-02-12T23:11:10;-2.00;99.90
12421;DHT22;6275;43.688;1.408;2023-02-12T23:13:37;-2.00;99.90
12421;DHT22;6275;43.688;1.408;2023-02-12T23:16:04;-2.00;99.90
12421;DHT22;6275;43.688;1.408;2023-02-12T23:18:32;-1.90;99.90
12421;DHT22;6275;43.688;1.408;2023-02-12T23:21:00;-1.90;99.90
12421;DHT22;6275;43.688;1.408;2023-02-12T23:23:27;-2.00;99.90
12421;DHT22;6275;43.688;1.408;2023-02-12T23:25:54;-2.00;99.90
12421;DHT22;6275;43.688;1.408;2023-02-12T23:28:22;-2.10;99.90
12421;DHT22;6275;43.688;1.408;2023-02-12T23:30:50;-2.10;99.90
12421;DHT22;6275;43.688;1.408;2023-02-12T23:33:18;-2.20;99.90
12421;DHT22;6275;43.688;1.408;2023-02-12T23:35:46;-2.10;99.90
12421;DHT22;6275;43.688;1.408;2023-02-12T23:38:14;-2.20;99.90
12421;DHT22;6275;43.688;1.408;2023-02-12T23:40:41;-2.30;99.90
12421;DHT22;6275;43.688;1.408;2023-02-12T23:43:09;-2.30;99.90
12421;DHT22;6275;43.688;1.408;2023-02-12T23:45:36;-2.30;99.90
12421;DHT22;6275;43.688;1.408;2023-02-12T23:48:03;-2.30;99.90
12421;DHT22;6275;43.688;1.408;2023-02-12T23:50:30;-2.30;99.90
12421;DHT22;6275;43.688;1.408;2023-02-12T23:52:58;-2.30;99.90
12421;DHT22;6275;43.688;1.408;2023-02-12T23:55:25;-2.30;99.90
12421;DHT22;6275;43.688;1.408;2023-02-12T23:57:52;-2.20;99.90
